createdAt,value
2019-03-09T00:00:34.776Z,56.07
2019-03-09T00:04:04.828Z,56.2
2019-03-09T00:07:34.910Z,56.29
2019-03-09T00:11:05.002Z,56.39
2019-03-09T00:14:34.984Z,56.5
2019-03-09T00:18:05.086Z,56.66
2019-03-09T00:21:36.809Z,56.75
2019-03-09T00:25:14.361Z,56.89
2019-03-09T00:28:50.833Z,57.01
2019-03-09T00:32:23.435Z,57.11
2019-03-09T00:35:53.507Z,57.23
2019-03-09T00:39:23.588Z,57.36
2019-03-09T00:42:53.644Z,57.46
2019-03-09T00:46:23.734Z,57.6
2019-03-09T00:49:53.845Z,57.73
2019-03-09T00:53:23.887Z,57.84
2019-03-09T00:56:53.929Z,57.95
2019-03-09T01:00:24.001Z,58.09
2019-03-09T01:03:54.174Z,58.18
2019-03-09T01:07:24.245Z,58.29
2019-03-09T01:10:54.277Z,58.43
2019-03-09T01:14:24.478Z,58.57
2019-03-09T01:17:54.531Z,58.7
2019-03-09T01:21:24.733Z,58.81
2019-03-09T01:24:55.875Z,58.93
2019-03-09T01:28:25.927Z,59.04
2019-03-09T01:31:55.959Z,59.16
2019-03-09T01:35:26.187Z,59.27
2019-03-09T01:38:56.183Z,59.39
2019-03-09T01:42:26.320Z,59.52
2019-03-09T01:45:56.361Z,59.64
2019-03-09T01:49:26.399Z,59.81
2019-03-09T01:52:56.520Z,59.93
2019-03-09T01:56:26.642Z,60.07
2019-03-09T01:59:56.654Z,60.17
2019-03-09T02:00:17.408Z,60.18
2019-03-09T02:03:47.437Z,60.31
2019-03-09T02:07:17.429Z,60.44
2019-03-09T02:10:47.531Z,60.52
2019-03-09T02:14:17.614Z,60.65
2019-03-09T02:17:47.742Z,60.75
2019-03-09T02:21:17.797Z,60.88
2019-03-09T02:24:47.939Z,61
2019-03-09T02:28:18.921Z,61.13
2019-03-09T02:31:48.948Z,61.22
2019-03-09T02:35:19.005Z,61.31
2019-03-09T02:39:00.808Z,61.42
2019-03-09T02:42:30.913Z,61.55
2019-03-09T02:46:00.974Z,61.65
2019-03-09T02:49:31.056Z,61.73
2019-03-09T02:53:01.016Z,61.84
2019-03-09T02:56:31.078Z,61.93
2019-03-09T03:00:01.778Z,62.04
2019-03-09T03:03:32.112Z,62.12
2019-03-09T03:07:02.382Z,62.19
2019-03-09T03:10:32.515Z,62.28
2019-03-09T03:14:02.658Z,62.39
2019-03-09T03:17:32.660Z,62.47
2019-03-09T03:21:02.858Z,62.56
2019-03-09T03:24:33.064Z,62.64
2019-03-09T03:28:03.106Z,62.75
2019-03-09T03:31:33.239Z,62.83
2019-03-09T03:35:04.065Z,62.91
2019-03-09T03:38:34.082Z,62.97
2019-03-09T03:42:04.220Z,63.01
2019-03-09T03:45:34.316Z,63.13
2019-03-09T03:49:04.411Z,63.2
2019-03-09T03:52:34.560Z,63.24
2019-03-09T03:56:04.689Z,63.31
2019-03-09T03:59:34.796Z,63.4
2019-03-09T04:00:17.043Z,63.41
2019-03-09T04:03:47.208Z,63.54
2019-03-09T04:07:17.255Z,63.61
2019-03-09T04:10:47.760Z,63.67
2019-03-09T04:14:17.812Z,63.74
2019-03-09T04:17:47.874Z,63.82
2019-03-09T04:21:18.071Z,63.92
2019-03-09T04:24:48.339Z,64.01
2019-03-09T04:28:18.372Z,64.08
2019-03-09T04:31:49.403Z,64.17
2019-03-09T04:35:19.397Z,64.25
2019-03-09T04:38:49.406Z,64.3
2019-03-09T04:42:19.437Z,64.39
2019-03-09T04:45:49.529Z,64.47
2019-03-09T04:49:19.621Z,64.54
2019-03-09T04:52:49.783Z,64.6
2019-03-09T04:56:19.827Z,64.65
2019-03-09T04:59:49.888Z,64.72
2019-03-09T05:03:20.039Z,64.82
2019-03-09T05:06:50.121Z,64.89
2019-03-09T05:10:26.956Z,64.99
2019-03-09T05:14:00.546Z,65.06
2019-03-09T05:17:30.638Z,65.11
2019-03-09T05:21:00.739Z,65.2
2019-03-09T05:24:30.759Z,65.26
2019-03-09T05:28:00.840Z,65.32
2019-03-09T05:31:30.846Z,65.38
2019-03-09T05:35:01.877Z,65.43
2019-03-09T05:38:32.059Z,65.5
2019-03-09T05:42:02.121Z,65.54
2019-03-09T05:45:32.094Z,65.59
2019-03-09T05:49:02.196Z,65.65
2019-03-09T05:52:33.342Z,65.7
2019-03-09T05:56:03.440Z,65.75
2019-03-09T05:59:33.483Z,65.76
2019-03-09T06:00:16.632Z,65.78
2019-03-09T06:03:46.714Z,65.81
2019-03-09T06:07:16.798Z,65.85
2019-03-09T06:10:46.822Z,65.87
2019-03-09T06:14:16.982Z,65.91
2019-03-09T06:17:47.013Z,65.92
2019-03-09T06:21:16.958Z,65.93
2019-03-09T06:24:47.060Z,65.95
2019-03-09T06:28:17.031Z,65.99
2019-03-09T06:33:16.182Z,66.02
2019-03-09T06:36:55.487Z,66.03
2019-03-09T06:40:25.526Z,66.06
2019-03-09T06:43:55.558Z,66.06
2019-03-09T06:47:25.620Z,66.11
2019-03-09T06:50:55.632Z,66.09
2019-03-09T06:54:25.744Z,66.12
2019-03-09T06:57:55.836Z,66.12
2019-03-09T07:01:25.971Z,66.13
2019-03-09T07:04:56.061Z,66.15
2019-03-09T07:08:26.175Z,66.16
2019-03-09T07:11:56.256Z,66.15
2019-03-09T07:15:28.749Z,66.14
2019-03-09T07:18:58.730Z,66.14
2019-03-09T07:22:28.763Z,66.11
2019-03-09T07:25:58.900Z,66.06
2019-03-09T07:29:28.810Z,66.05
2019-03-09T07:32:58.907Z,66.02
2019-03-09T07:36:28.970Z,66.02
2019-03-09T07:40:00.032Z,65.96
2019-03-09T07:43:30.167Z,65.9
2019-03-09T07:47:00.177Z,65.84
2019-03-09T07:50:30.323Z,65.74
2019-03-09T07:54:00.360Z,65.66
2019-03-09T07:57:30.402Z,65.52
2019-03-09T08:00:17.626Z,65.42
2019-03-09T08:03:47.696Z,65.32
2019-03-09T08:07:17.644Z,65.2
2019-03-09T08:10:47.651Z,65.1
2019-03-09T08:14:17.733Z,64.97
2019-03-09T08:17:47.785Z,64.87
2019-03-09T08:21:17.887Z,64.7
2019-03-09T08:24:48.001Z,64.61
2019-03-09T08:28:17.943Z,64.47
2019-03-09T08:31:48.024Z,64.36
2019-03-09T08:35:18.747Z,64.24
2019-03-09T08:38:48.847Z,64.11
2019-03-09T08:42:19.932Z,63.98
2019-03-09T08:45:49.924Z,63.82
2019-03-09T08:49:19.969Z,63.71
2019-03-09T08:52:50.214Z,63.51
2019-03-09T08:56:20.333Z,63.35
2019-03-09T08:59:50.506Z,63.16
2019-03-09T09:03:20.594Z,62.97
2019-03-09T09:06:50.728Z,62.78
2019-03-09T09:10:20.795Z,62.61
2019-03-09T09:13:50.880Z,62.4
2019-03-09T09:17:21.026Z,62.2
2019-03-09T09:20:51.225Z,62.03
2019-03-09T09:24:21.228Z,61.84
2019-03-09T09:27:52.204Z,61.63
2019-03-09T09:31:22.472Z,61.43
2019-03-09T09:34:52.574Z,61.22
2019-03-09T09:38:22.596Z,61.05
2019-03-09T09:41:52.720Z,60.86
2019-03-09T09:45:24.491Z,60.66
2019-03-09T09:48:54.596Z,60.46
2019-03-09T09:52:24.623Z,60.27
2019-03-09T09:55:54.820Z,60.08
2019-03-09T09:59:24.871Z,59.86
2019-03-09T10:00:18.931Z,59.82
2019-03-09T10:03:48.969Z,59.65
2019-03-09T10:07:19.046Z,59.44
2019-03-09T10:10:49.258Z,59.25
2019-03-09T10:14:19.331Z,59.04
2019-03-09T10:17:49.554Z,58.87
2019-03-09T10:21:19.505Z,58.63
2019-03-09T10:24:49.627Z,58.47
2019-03-09T10:28:19.760Z,58.28
2019-03-09T10:31:49.892Z,58.04
2019-03-09T10:35:19.974Z,57.82
2019-03-09T10:38:50.017Z,57.55
2019-03-09T10:42:20.065Z,57.27
2019-03-09T10:45:51.122Z,56.97
2019-03-09T10:49:21.134Z,56.67
2019-03-09T10:52:51.276Z,56.29
2019-03-09T10:56:21.379Z,55.94
2019-03-09T10:59:51.501Z,55.52
2019-03-09T11:03:21.584Z,55.13
2019-03-09T11:06:51.717Z,54.68
2019-03-09T11:10:21.911Z,54.24
2019-03-09T11:13:52.328Z,53.76
2019-03-09T11:17:22.424Z,53.28
2019-03-09T11:20:52.497Z,52.81
2019-03-09T11:24:22.615Z,52.34
2019-03-09T11:27:52.851Z,51.83
2019-03-09T11:31:22.884Z,51.32
2019-03-09T11:34:53.087Z,50.81
2019-03-09T11:38:23.119Z,50.32
2019-03-09T11:41:53.231Z,49.79
2019-03-09T11:45:23.265Z,49.3
2019-03-09T11:48:54.357Z,48.8
2019-03-09T11:52:24.531Z,48.31
2019-03-09T11:55:54.761Z,47.85
2019-03-09T11:59:24.855Z,47.4
2019-03-09T12:00:20.225Z,47.27
2019-03-09T12:03:50.258Z,46.82
2019-03-09T12:07:20.300Z,46.38
2019-03-09T12:10:50.416Z,45.95
2019-03-09T12:14:20.455Z,45.53
2019-03-09T12:17:50.920Z,45.1
2019-03-09T12:21:21.163Z,44.62
2019-03-09T12:24:52.103Z,44.22
2019-03-09T12:28:22.185Z,43.76
2019-03-09T12:31:52.288Z,43.29
2019-03-09T12:35:22.350Z,42.78
2019-03-09T12:38:52.523Z,42.31
2019-03-09T12:42:22.674Z,41.78
2019-03-09T12:45:52.818Z,41.25
2019-03-09T12:49:22.990Z,40.74
2019-03-09T12:52:53.096Z,40.24
2019-03-09T12:56:23.436Z,39.78
2019-03-09T12:59:53.468Z,39.33
2019-03-09T13:03:23.542Z,38.9
2019-03-09T13:06:53.654Z,38.48
2019-03-09T13:10:23.915Z,38.1
2019-03-09T13:13:54.078Z,37.66
2019-03-09T13:17:24.163Z,37.27
2019-03-09T13:20:54.223Z,36.82
2019-03-09T13:24:24.378Z,36.4
2019-03-09T13:27:54.488Z,35.97
2019-03-09T13:31:24.621Z,35.56
2019-03-09T13:34:54.693Z,35.12
2019-03-09T13:38:24.806Z,34.73
2019-03-09T13:41:54.934Z,34.34
2019-03-09T13:45:25.012Z,33.96
2019-03-09T13:48:55.184Z,33.56
2019-03-09T13:52:26.257Z,33.23
2019-03-09T13:55:56.469Z,32.93
2019-03-09T13:59:27.414Z,32.68
2019-03-09T14:00:17.202Z,32.65
2019-03-09T14:03:47.225Z,32.42
2019-03-09T14:07:17.308Z,32.25
2019-03-09T14:10:47.440Z,32.02
2019-03-09T14:14:17.432Z,31.86
2019-03-09T14:17:47.610Z,31.76
2019-03-09T14:21:17.767Z,31.63
2019-03-09T14:24:47.850Z,31.54
2019-03-09T14:28:17.839Z,31.43
2019-03-09T14:31:47.987Z,31.32
2019-03-09T14:35:18.079Z,31.22
2019-03-09T14:38:48.170Z,31.11
2019-03-09T14:42:18.135Z,31.03
2019-03-09T14:45:48.146Z,30.96
2019-03-09T14:49:18.208Z,30.85
2019-03-09T14:52:49.250Z,30.8
2019-03-09T14:56:19.273Z,30.74
2019-03-09T14:59:51.022Z,30.66
2019-03-09T15:03:21.188Z,30.57
2019-03-09T15:06:51.341Z,30.52
2019-03-09T15:10:21.492Z,30.46
2019-03-09T15:13:52.515Z,30.41
2019-03-09T15:17:22.748Z,30.35
2019-03-09T15:20:52.862Z,30.37
2019-03-09T15:24:22.853Z,30.36
2019-03-09T15:27:53.566Z,30.36
2019-03-09T15:31:23.658Z,30.41
2019-03-09T15:34:53.722Z,30.47
2019-03-09T15:38:23.793Z,30.53
2019-03-09T15:41:53.937Z,30.61
2019-03-09T15:45:24.067Z,30.66
2019-03-09T15:48:54.130Z,30.69
2019-03-09T15:52:24.218Z,30.82
2019-03-09T15:55:55.985Z,30.96
2019-03-09T15:59:26.117Z,31.1
2019-03-09T16:00:17.650Z,31.14
2019-03-09T16:03:47.780Z,31.26
2019-03-09T16:07:17.812Z,31.41
2019-03-09T16:10:47.954Z,31.54
2019-03-09T16:14:18.074Z,31.69
2019-03-09T16:17:48.169Z,31.82
2019-03-09T16:21:18.302Z,31.94
2019-03-09T16:24:48.484Z,32.07
2019-03-09T16:28:18.576Z,32.2
2019-03-09T16:31:48.728Z,32.34
2019-03-09T16:35:18.833Z,32.51
2019-03-09T16:38:48.893Z,32.69
2019-03-09T16:42:18.965Z,32.86
2019-03-09T16:45:49.117Z,33.07
2019-03-09T16:49:19.139Z,33.3
2019-03-09T16:52:49.293Z,33.55
2019-03-09T16:56:20.424Z,33.79
2019-03-09T16:59:50.696Z,34.01
2019-03-09T17:03:20.668Z,34.27
2019-03-09T17:06:50.697Z,34.52
2019-03-09T17:10:20.772Z,34.77
2019-03-09T17:13:50.824Z,35.02
2019-03-09T17:17:22.856Z,35.24
2019-03-09T17:20:53.008Z,35.42
2019-03-09T17:24:23.011Z,35.61
2019-03-09T17:27:53.225Z,35.76
2019-03-09T17:31:23.245Z,35.93
2019-03-09T17:34:53.437Z,36.06
2019-03-09T17:38:23.519Z,36.17
2019-03-09T17:41:53.544Z,36.29
2019-03-09T17:45:23.586Z,36.41
2019-03-09T17:48:53.726Z,36.5
2019-03-09T17:52:23.788Z,36.62
2019-03-09T17:55:53.890Z,36.73
2019-03-09T17:59:24.926Z,36.82
2019-03-09T18:00:19.383Z,36.83
2019-03-09T18:03:49.425Z,36.95
2019-03-09T18:07:19.487Z,37.05
2019-03-09T18:10:52.959Z,37.15
2019-03-09T18:14:23.041Z,37.23
2019-03-09T18:17:53.223Z,37.3
2019-03-09T18:21:23.335Z,37.4
2019-03-09T18:24:53.347Z,37.48
2019-03-09T18:28:23.399Z,37.57
2019-03-09T18:31:53.432Z,37.64
2019-03-09T18:35:23.436Z,37.73
2019-03-09T18:38:53.546Z,37.82
2019-03-09T18:42:23.638Z,37.92
2019-03-09T18:45:53.640Z,37.99
2019-03-09T18:49:23.668Z,38.07
2019-03-09T18:52:53.735Z,38.17
2019-03-09T18:56:23.677Z,38.29
2019-03-09T18:59:55.512Z,38.41
2019-03-09T19:03:25.601Z,38.52
2019-03-09T19:06:55.664Z,38.64
2019-03-09T19:10:25.836Z,38.73
2019-03-09T19:13:55.948Z,38.86
2019-03-09T19:17:25.848Z,39
2019-03-09T19:20:56.002Z,39.13
2019-03-09T19:24:26.019Z,39.26
2019-03-09T19:27:56.211Z,39.39
2019-03-09T19:31:26.299Z,39.52
2019-03-09T19:34:56.411Z,39.67
2019-03-09T19:38:26.523Z,39.84
2019-03-09T19:41:56.656Z,39.99
2019-03-09T19:45:26.684Z,40.16
2019-03-09T19:48:56.741Z,40.3
2019-03-09T19:52:26.822Z,40.45
2019-03-09T19:55:57.074Z,40.6
2019-03-09T19:59:27.066Z,40.75
2019-03-09T20:00:18.586Z,40.77
2019-03-09T20:03:48.709Z,40.91
2019-03-09T20:07:18.781Z,41.05
2019-03-09T20:10:48.904Z,41.22
2019-03-09T20:14:18.995Z,41.38
2019-03-09T20:17:49.178Z,41.57
2019-03-09T20:21:19.290Z,41.74
2019-03-09T20:24:49.390Z,41.91
2019-03-09T20:28:19.460Z,42.08
2019-03-09T20:31:49.456Z,42.26
2019-03-09T20:35:19.530Z,42.43
2019-03-09T20:38:49.662Z,42.59
2019-03-09T20:42:19.693Z,42.75
2019-03-09T20:45:49.825Z,42.92
2019-03-09T20:49:19.787Z,43.07
2019-03-09T20:52:50.139Z,43.23
2019-03-09T20:56:20.233Z,43.4
2019-03-09T20:59:50.313Z,43.56
2019-03-09T21:03:22.928Z,43.7
2019-03-09T21:06:53.208Z,43.86
2019-03-09T21:10:23.351Z,44.01
2019-03-09T21:13:53.470Z,44.14
2019-03-09T21:17:23.508Z,44.29
2019-03-09T21:20:53.472Z,44.42
2019-03-09T21:24:23.569Z,44.56
2019-03-09T21:27:53.746Z,44.71
2019-03-09T21:31:23.863Z,44.82
2019-03-09T21:34:53.987Z,44.94
2019-03-09T21:38:23.970Z,45.06
2019-03-09T21:41:54.170Z,45.14
2019-03-09T21:45:24.195Z,45.25
2019-03-09T21:48:54.344Z,45.32
2019-03-09T21:52:24.275Z,45.41
2019-03-09T21:55:54.357Z,45.47
2019-03-09T21:59:24.331Z,45.59
2019-03-09T22:00:17.401Z,45.59
2019-03-09T22:03:47.533Z,45.69
2019-03-09T22:07:17.505Z,45.78
2019-03-09T22:10:47.537Z,45.92
2019-03-09T22:14:17.539Z,46.08
2019-03-09T22:17:47.692Z,46.25
2019-03-09T22:21:17.844Z,46.41
2019-03-09T22:24:47.944Z,46.59
2019-03-09T22:28:17.977Z,46.75
2019-03-09T22:31:48.049Z,46.94
2019-03-09T22:35:18.020Z,47.14
2019-03-09T22:38:48.123Z,47.3
2019-03-09T22:42:18.160Z,47.5
2019-03-09T22:45:48.207Z,47.66
2019-03-09T22:49:18.329Z,47.84
2019-03-09T22:52:48.451Z,48
2019-03-09T22:56:18.423Z,48.18
2019-03-09T22:59:48.555Z,48.32
2019-03-09T23:03:18.659Z,48.45
2019-03-09T23:06:49.719Z,48.56
2019-03-09T23:10:19.801Z,48.66
2019-03-09T23:13:49.993Z,48.77
2019-03-09T23:17:20.007Z,48.84
2019-03-09T23:20:50.071Z,48.93
2019-03-09T23:24:20.137Z,49.01
2019-03-09T23:27:50.172Z,49.04
2019-03-09T23:31:20.254Z,49.09
2019-03-09T23:34:50.326Z,49.12
2019-03-09T23:38:20.548Z,49.14
2019-03-09T23:41:50.610Z,49.13
2019-03-09T23:45:20.812Z,49.12
2019-03-09T23:48:51.526Z,49.1
2019-03-09T23:52:21.566Z,49.09
2019-03-09T23:55:51.748Z,49.06
2019-03-09T23:59:21.811Z,49.02
